M I D A S
Marine Information and Data Acquisition System
Tripno 1915 of the Zeeleeuw from 2010-07-07 06:55:27 to 2010-07-07 13:12:15
Back to CruiseResearch ActivitiesStationsMapUnderway DataData graphs

EquipmentUnitsComment
TimeDGPSUTC
LatitudeDGPSDM.mWGS84
LongitudeDGPSDM.mWGS84
TemperatureSBE03/SBE38deg celciusITS90
ConductivitySBE21S/mITS90
SalinitySBE21 Practical Salinity Units
ChlorophylAChelsea fluorimeterg/lCalibrated in Aceton
Missing or incorrect values are displayed as -999
Sea surface data collected by the RV Zeeleeuw from 2010-07-07 06:49:23 to 2010-07-07 13:18:48
Time Latitude Longitude Temperature Conductivity Salinity ChlorophylA
2010-07-07 06:50:31 51°13.684 2°55.89 22.5769 0.071092 0.372782 -1.000568
2010-07-07 06:51:32 51°13.727 2°55.782 22.5833 0.071196 0.373384 -1.000568
2010-07-07 06:52:31 51°13.787 2°55.686 22.5874 0.071092 0.372884 -1.035392
2010-07-07 06:53:31 51°13.864 2°55.635 21.3129 0.071092 0.372793 -1.000568
2010-07-07 06:54:31 51°13.934 2°55.648 20.3741 4.127009 28.930143 -0.478207
2010-07-07 06:55:31 51°13.938 2°55.617 20.3306 4.100005 29.044655 -0.408559
2010-07-07 06:56:29 51°14.008 2°55.527 20.2654 4.080593 28.925911 -0.373735
2010-07-07 06:57:30 51°14.136 2°55.415 20.2516 4.065191 28.842474 -0.338911
2010-07-07 06:59:12 51°14.409 2°55.177 20.0671 4.093889 29.13766 -0.234439
2010-07-07 07:00:12 51°14.607 2°55.031 20.0143 4.133561 29.528717 -0.373735
2010-07-07 07:01:11 51°14.805 2°55.201 19.9134 4.186635 29.973964 -0.547855
2010-07-07 07:02:11 51°15.01 2°55.408 19.8772 4.212488 30.262574 -0.547855
2010-07-07 07:03:12 51°15.224 2°55.607 19.8143 4.213755 30.305138 -0.547855
2010-07-07 07:04:11 51°15.394 2°55.781 19.775 4.20964 30.311204 -0.617504
2010-07-07 07:05:12 51°15.484 2°55.889 19.7605 4.208691 30.331545 -0.617504
2010-07-07 07:06:12 51°15.557 2°55.926 19.742 4.207003 30.327647 -0.617504
2010-07-07 07:07:11 51°15.624 2°55.942 19.726 4.210697 30.367532 -0.652328
2010-07-07 07:08:11 51°15.68 2°55.988 19.7086 4.219244 30.448555 -0.687152
2010-07-07 07:09:12 51°15.716 2°56.07 19.6968 4.223676 30.497038 -0.687152
2010-07-07 07:10:12 51°15.753 2°56.147 19.6993 4.222304 30.491631 -0.721976
2010-07-07 07:11:12 51°15.788 2°56.217 19.6973 4.221144 30.481257 -0.687152
2010-07-07 07:12:12 51°15.82 2°56.286 19.6968 4.219139 30.465624 -0.721976
2010-07-07 07:13:12 51°15.853 2°56.352 19.6981 4.218822 30.462562 -0.721976
2010-07-07 07:14:12 51°15.887 2°56.421 19.6959 4.218611 30.4624 -0.687152
2010-07-07 07:15:12 51°15.916 2°56.498 19.6927 4.218928 30.465461 -0.721976
2010-07-07 07:16:12 51°15.939 2°56.58 19.6883 4.219244 30.471085 -0.721976
2010-07-07 07:17:12 51°15.96 2°56.661 19.6878 4.219772 30.477898 -0.721976
2010-07-07 07:18:12 51°15.982 2°56.739 19.6903 4.21935 30.473985 -0.721976
2010-07-07 07:19:12 51°16.004 2°56.813 19.6946 4.218295 30.463949 -0.721976
2010-07-07 07:20:12 51°16.026 2°56.886 19.7009 4.217556 30.454414 -0.7568
2010-07-07 07:21:12 51°16.047 2°56.956 19.7037 4.216923 30.44522 -0.687152
2010-07-07 07:22:12 51°16.067 2°57.025 19.7054 4.216817 30.442323 -0.687152
2010-07-07 07:23:12 51°16.085 2°57.096 19.705 4.217134 30.444872 -0.721976
2010-07-07 07:24:12 51°16.103 2°57.171 19.7043 4.217134 30.445384 -0.687152
2010-07-07 07:25:12 51°16.123 2°57.247 19.7038 4.217345 30.447083 -0.721976
2010-07-07 07:26:12 51°16.148 2°57.32 19.706 4.216712 30.440962 -0.7568
2010-07-07 07:27:12 51°16.163 2°57.398 19.7069 4.215973 30.433992 -0.687152
2010-07-07 07:28:12 51°16.175 2°57.474 19.7104 4.215551 30.430083 -0.687152
2010-07-07 07:29:12 51°16.182 2°57.557 19.7126 4.214812 30.420557 -0.687152
2010-07-07 07:30:11 51°16.172 2°57.657 19.7211 4.214074 30.414101 -0.721976
2010-07-07 07:31:12 51°16.14 2°57.745 19.7311 4.213124 30.399816 -0.7568
2010-07-07 07:32:12 51°16.116 2°57.797 19.7386 4.211646 30.381293 -0.687152
2010-07-07 07:33:12 51°16.08 2°57.831 19.7476 4.208797 30.352768 -0.687152
2010-07-07 07:34:12 51°16.025 2°57.711 19.749 4.201727 30.288801 -0.652328
2010-07-07 07:35:12 51°16.101 2°57.459 19.7432 4.197296 30.252168 -0.617504
2010-07-07 07:36:12 51°16.204 2°57.17 19.7312 4.210907 30.362601 -0.652328
2010-07-07 07:37:11 51°16.295 2°56.874 19.662 4.222198 30.470799 -0.652328
2010-07-07 07:38:12 51°16.378 2°56.559 19.6335 4.225365 30.534251 -0.617504
2010-07-07 07:39:11 51°16.465 2°56.262 19.5983 4.229691 30.588686 -0.652328
2010-07-07 07:40:11 51°16.561 2°55.966 19.5417 4.230536 30.623349 -0.652328
2010-07-07 07:41:12 51°16.653 2°55.66 19.4784 4.23824 30.740508 -0.617504
2010-07-07 07:42:12 51°16.758 2°55.369 19.4189 4.240668 30.794496 -0.58268
2010-07-07 07:43:12 51°16.86 2°55.078 19.3449 4.239508 30.830487 -0.617504
2010-07-07 07:44:12 51°16.946 2°54.777 19.2413 4.240143 30.911627 -0.687152
2010-07-07 07:45:12 51°17.031 2°54.474 19.2348 4.238138 30.937935 -0.652328
2010-07-07 07:46:12 51°17.113 2°54.324 19.239 4.237083 30.933556 -0.687152
2010-07-07 07:47:12 51°17.191 2°54.361 19.2543 4.236661 30.926957 -0.721976
2010-07-07 07:48:11 51°17.234 2°54.457 19.2754 4.2374 30.92086 -0.721976
2010-07-07 07:49:12 51°17.262 2°54.552 19.2768 4.238666 30.921168 -0.687152
2010-07-07 07:50:12 51°17.288 2°54.641 19.292 4.238982 30.921114 -0.721976
2010-07-07 07:51:12 51°17.316 2°54.72 19.3102 4.240037 30.916025 -0.721976
2010-07-07 07:52:11 51°17.345 2°54.793 19.3195 4.241198 30.914428 -0.687152
2010-07-07 07:53:12 51°17.371 2°54.868 19.327 4.241725 30.910311 -0.687152
2010-07-07 07:54:12 51°17.394 2°54.943 19.3346 4.242569 30.911397 -0.687152
2010-07-07 07:55:12 51°17.416 2°55.018 19.3369 4.243097 30.911484 -0.617504
2010-07-07 07:56:11 51°17.437 2°55.092 19.3363 4.243202 30.910242 -0.687152
2010-07-07 07:57:12 51°17.461 2°55.165 19.3327 4.243202 30.910242 -0.687152
2010-07-07 07:58:12 51°17.486 2°55.237 19.3324 4.243413 30.914583 -0.652328
2010-07-07 07:59:12 51°17.51 2°55.31 19.3407 4.243202 30.913918 -0.721976
2010-07-07 08:00:12 51°17.533 2°55.384 19.3402 4.243624 30.912097 -0.687152
2010-07-07 08:01:12 51°17.555 2°55.458 19.3502 4.243519 30.90914 -0.652328
2010-07-07 08:02:12 51°17.578 2°55.53 19.3437 4.243941 30.907846 -0.687152
2010-07-07 08:03:11 51°17.604 2°55.598 19.3482 4.243941 30.909945 -0.687152
2010-07-07 08:04:12 51°17.633 2°55.668 19.3521 4.244152 30.909561 -0.721976
2010-07-07 08:05:12 51°17.662 2°55.739 19.3529 4.244468 30.908984 -0.687152
2010-07-07 08:06:12 51°17.691 2°55.81 19.3518 4.244363 30.907602 -0.652328
2010-07-07 08:07:12 51°17.718 2°55.882 19.3534 4.244257 30.907269 -0.652328
2010-07-07 08:08:12 51°17.74 2°55.958 19.3569 4.244363 30.907077 -0.652328
2010-07-07 08:09:12 51°17.758 2°56.047 19.3594 4.244363 30.904454 -0.687152
2010-07-07 08:10:12 51°17.774 2°56.147 19.3589 4.244468 30.903737 -0.652328
2010-07-07 08:11:11 51°17.777 2°56.248 19.3644 4.244574 30.903545 -0.652328
2010-07-07 08:12:12 51°17.76 2°56.343 19.3642 4.244468 30.899017 -0.652328
2010-07-07 08:13:12 51°17.719 2°56.425 19.3704 4.244679 30.901255 -0.617504
2010-07-07 08:14:12 51°17.685 2°56.472 19.3715 4.243307 30.884348 -0.617504
2010-07-07 08:15:12 51°17.629 2°56.423 19.3566 4.240142 30.859167 -0.617504
2010-07-07 08:16:12 51°17.667 2°56.262 19.3531 4.238981 30.861263 -0.617504
2010-07-07 08:17:12 51°17.807 2°56.188 19.3438 4.244046 30.905555 -0.652328
2010-07-07 08:18:12 51°17.971 2°56.134 19.3871 4.244046 30.908178 -0.652328
2010-07-07 08:19:11 51°18.187 2°56.086 19.5413 4.244995 30.877103 -0.58268
2010-07-07 08:20:12 51°18.423 2°56.055 19.5583 4.245837 30.780146 -0.721976
2010-07-07 08:21:12 51°18.659 2°56.072 19.5692 4.247737 30.786672 -0.687152
2010-07-07 08:22:12 51°18.894 2°56.089 19.6111 4.241827 30.721267 -0.721976
2010-07-07 08:23:12 51°19.129 2°56.103 19.5853 4.235917 30.649236 -0.687152
2010-07-07 08:24:11 51°19.362 2°56.118 19.4409 4.224311 30.585465 -0.687152
2010-07-07 08:25:12 51°19.602 2°56.131 19.1216 4.218299 30.677723 -0.721976
2010-07-07 08:26:12 51°19.836 2°56.138 18.9638 4.193294 30.660218 -0.687152
2010-07-07 08:27:12 51°20.07 2°56.121 18.9726 4.174092 30.621448 -0.7568
2010-07-07 08:28:12 51°20.304 2°56.104 18.9329 4.165862 30.550465 -0.721976
2010-07-07 08:29:12 51°20.537 2°56.086 18.8618 4.157527 30.524234 -0.7568
2010-07-07 08:30:12 51°20.772 2°56.073 18.8507 4.153308 30.525376 -0.791624
2010-07-07 08:31:12 51°21.003 2°56.043 18.9588 4.152463 30.495364 -0.7568
2010-07-07 08:32:12 51°21.216 2°55.917 18.9432 4.150035 30.423184 -0.7568
2010-07-07 08:33:12 51°21.417 2°55.759 18.9551 4.146132 30.402763 -0.721976
2010-07-07 08:34:12 51°21.619 2°55.597 18.9852 4.140223 30.341448 -0.721976
2010-07-07 08:35:12 51°21.822 2°55.439 19.0252 4.137057 30.294801 -0.7568
2010-07-07 08:36:12 51°22.048 2°55.354 19.0169 4.13885 30.281407 -0.721976
2010-07-07 08:37:11 51°22.281 2°55.323 18.9483 4.140117 30.307305 -0.721976
2010-07-07 08:38:12 51°22.526 2°55.309 18.5963 4.133259 30.307458 -0.721976
2010-07-07 08:39:12 51°22.763 2°55.307 18.4537 4.155738 30.749731 -0.791624
2010-07-07 08:40:12 51°22.998 2°55.306 18.4439 4.155634 30.821087 -0.826448
2010-07-07 08:41:12 51°23.229 2°55.275 18.429 4.15479 30.835037 -0.826448
2010-07-07 08:42:12 51°23.456 2°55.2 18.3267 4.151203 30.819846 -0.826448
2010-07-07 08:43:12 51°23.688 2°55.142 18.2187 4.141814 30.811404 -0.791624
2010-07-07 08:44:12 51°23.924 2°55.101 18.2401 4.133058 30.812019 -0.791624
2010-07-07 08:45:11 51°24.157 2°55.059 18.2636 4.124195 30.732444 -0.721976
2010-07-07 08:46:12 51°24.398 2°55.017 18.3056 4.121451 30.689228 -0.7568
2010-07-07 08:47:12 51°24.636 2°54.975 18.3291 4.121028 30.65675 -0.687152
2010-07-07 08:48:12 51°24.874 2°54.931 18.3172 4.12356 30.661131 -0.687152
2010-07-07 08:49:12 51°25.112 2°54.89 18.3734 4.124827 30.682885 -0.687152
2010-07-07 08:50:12 51°25.349 2°54.85 18.482 4.138014 30.730507 -0.7568
2010-07-07 08:51:12 51°25.587 2°54.807 18.2472 4.146666 30.772637 -0.721976
2010-07-07 08:52:12 51°25.822 2°54.765 18.2413 4.165766 31.067176 -0.687152
2010-07-07 08:53:12 51°26.055 2°54.72 18.2209 4.166399 31.086599 -0.617504
2010-07-07 08:54:12 51°26.289 2°54.675 18.222 4.167244 31.094714 -0.617504
2010-07-07 08:55:12 51°26.524 2°54.631 18.2083 4.165345 31.092532 -0.652328
2010-07-07 08:56:12 51°26.759 2°54.588 18.1875 4.164606 31.091835 -0.617504
2010-07-07 08:57:12 51°26.995 2°54.547 18.1202 4.163868 31.104234 -0.547855
2010-07-07 08:58:12 51°27.235 2°54.502 18.0624 4.161442 31.132654 -0.617504
2010-07-07 08:59:12 51°27.472 2°54.459 17.9819 4.159016 31.172164 -0.652328
2010-07-07 09:00:12 51°27.71 2°54.414 17.9176 4.153952 31.178744 -0.617504
2010-07-07 09:01:12 51°27.948 2°54.368 17.9395 4.149416 31.178758 -0.652328
2010-07-07 09:02:12 51°28.182 2°54.325 18.008 4.15142 31.175163 -0.617504
2010-07-07 09:03:12 51°28.42 2°54.277 17.8249 4.147411 31.127836 -0.547855
2010-07-07 09:04:12 51°28.657 2°54.228 17.7463 4.135701 31.140953 -0.513031
2010-07-07 09:05:12 51°28.892 2°54.177 17.7187 4.135385 31.190855 -0.513031
2010-07-07 09:06:12 51°29.127 2°54.129 17.6629 4.144987 31.302785 -0.478207
2010-07-07 09:07:12 51°29.361 2°54.08 17.6769 4.151002 31.38752 -0.513031
2010-07-07 09:08:12 51°29.595 2°54.033 17.6788 4.15364 31.393548 -0.547855
2010-07-07 09:09:12 51°29.828 2°53.984 17.6284 4.156172 31.422732 -0.478207
2010-07-07 09:10:12 51°30.064 2°53.937 17.578 4.156067 31.461634 -0.513031
2010-07-07 09:11:12 51°30.3 2°53.886 17.5414 4.155857 31.495814 -0.547855
2010-07-07 09:12:12 51°30.537 2°53.838 17.5178 4.155224 31.518616 -0.58268
2010-07-07 09:13:12 51°30.762 2°53.734 17.4932 4.155225 31.538921 -0.617504
2010-07-07 09:14:12 51°30.973 2°53.582 17.4341 4.156386 31.567393 -0.58268
2010-07-07 09:15:12 51°31.182 2°53.42 17.3874 4.15607 31.615678 -0.652328
2010-07-07 09:16:12 51°31.389 2°53.259 17.3156 4.154488 31.638017 -0.617504
2010-07-07 09:17:12 51°31.577 2°53.059 17.3199 4.153117 31.670186 -0.652328
2010-07-07 09:18:12 51°31.684 2°52.891 17.2856 4.156177 31.701354 -0.652328
2010-07-07 09:19:12 51°31.729 2°52.796 17.2754 4.159132 31.751648 -0.652328
2010-07-07 09:20:12 51°31.772 2°52.723 17.2843 4.158393 31.748218 -0.652328
2010-07-07 09:21:12 51°31.807 2°52.638 17.2629 4.158815 31.747236 -0.617504
2010-07-07 09:22:12 51°31.831 2°52.545 17.2542 4.160926 31.777807 -0.652328
2010-07-07 09:23:12 51°31.834 2°52.459 17.2665 4.163353 31.812825 -0.617504
2010-07-07 09:24:12 51°31.836 2°52.367 17.2775 4.163564 31.799713 -0.58268
2010-07-07 09:25:12 51°31.826 2°52.293 17.2985 4.164829 31.798466 -0.617504
2010-07-07 09:26:12 51°31.823 2°52.232 17.3254 4.166096 31.801231 -0.58268
2010-07-07 09:27:12 51°31.816 2°52.187 17.3268 4.16599 31.776865 -0.58268
2010-07-07 09:28:12 51°31.817 2°52.156 17.3356 4.166623 31.783397 -0.513031
2010-07-07 09:29:12 51°31.81 2°52.133 17.318 4.16715 31.78274 -0.547855
2010-07-07 09:30:12 51°31.793 2°52.119 17.2952 4.167889 31.801615 -0.547855
2010-07-07 09:31:12 51°31.786 2°52.109 17.2739 4.167784 31.816183 -0.547855
2010-07-07 09:32:12 51°31.786 2°52.107 17.248 4.167573 31.832736 -0.547855
2010-07-07 09:33:12 51°31.804 2°52.133 17.2193 4.167046 31.848335 -0.547855
2010-07-07 09:34:12 51°31.829 2°52.166 17.1214 4.166413 31.865356 -0.547855
2010-07-07 09:35:13 51°31.851 2°52.17 17.1726 4.167681 31.955223 -0.547855
2010-07-07 09:36:12 51°31.837 2°52.153 17.2003 4.164936 31.878652 -0.58268
2010-07-07 09:37:12 51°31.804 2°52.128 17.1924 4.166202 31.873914 -0.58268
2010-07-07 09:38:12 51°31.791 2°52.114 17.1588 4.16673 31.888209 -0.58268
2010-07-07 09:39:12 51°31.787 2°52.106 17.1438 4.166097 31.905287 -0.617504
2010-07-07 09:40:12 51°31.794 2°52.119 17.1221 4.165781 31.918167 -0.58268
2010-07-07 09:41:12 51°31.809 2°52.141 17.1205 4.165465 31.930483 -0.547855
2010-07-07 09:42:12 51°31.828 2°52.17 17.1152 4.164726 31.92301 -0.617504
2010-07-07 09:43:12 51°31.848 2°52.181 17.1133 4.165254 31.935617 -0.547855
2010-07-07 09:44:12 51°31.824 2°52.148 17.1557 4.164304 31.921712 -0.58268
2010-07-07 09:45:12 51°31.799 2°52.135 17.1872 4.164198 31.893672 -0.58268
2010-07-07 09:46:12 51°31.786 2°52.112 17.2572 4.159555 31.806259 -0.617504
2010-07-07 09:47:12 51°31.79 2°52.111 17.2778 4.158393 31.761383 -0.58268
2010-07-07 09:48:12 51°31.811 2°52.134 17.2828 4.157233 31.739476 -0.547855
2010-07-07 09:49:12 51°31.839 2°52.167 17.2578 4.158499 31.754267 -0.58268
2010-07-07 09:50:12 51°31.872 2°52.194 17.297 4.158288 31.764493 -0.58268
2010-07-07 09:51:12 51°31.896 2°52.173 17.2974 4.156599 31.721507 -0.617504
2010-07-07 09:52:12 51°31.872 2°52.145 17.2989 4.157021 31.723958 -0.547855
2010-07-07 09:53:12 51°31.82 2°52.137 17.3153 4.156599 31.716936 -0.547855
2010-07-07 09:54:12 51°31.79 2°52.121 17.314 4.15586 31.698661 -0.58268
2010-07-07 09:55:12 51°31.782 2°52.102 17.3299 4.155755 31.697192 -0.58268
2010-07-07 09:56:12 51°31.799 2°52.122 17.2712 4.155122 31.67926 -0.58268
2010-07-07 09:57:14 51°31.821 2°52.182 17.2462 4.161243 31.820088 -0.547855
2010-07-07 09:58:13 51°31.842 2°52.237 17.3151 4.154806 31.731958 -0.547855
2010-07-07 09:59:13 51°31.862 2°52.288 17.3202 4.155755 31.698333 -0.547855
2010-07-07 10:00:11 51°31.882 2°52.337 17.3156 4.156071 31.698744 -0.547855
2010-07-07 10:01:12 51°31.905 2°52.386 17.322 4.156388 31.704291 -0.547855
2010-07-07 10:02:11 51°31.929 2°52.431 17.3315 4.157232 31.706338 -0.547855
2010-07-07 10:03:12 51°31.954 2°52.479 17.3517 4.157865 31.701454 -0.58268
2010-07-07 10:04:11 51°31.98 2°52.525 17.3709 4.160081 31.710605 -0.58268
2010-07-07 10:05:12 51°32.005 2°52.57 17.3632 4.160819 31.702062 -0.58268
2010-07-07 10:06:11 51°32.03 2°52.613 17.3606 4.160291 31.703276 -0.58268
2010-07-07 10:07:12 51°32.057 2°52.657 17.3596 4.161135 31.709313 -0.547855
2010-07-07 10:08:12 51°32.084 2°52.7 17.3349 4.160925 31.71208 -0.58268
2010-07-07 10:09:12 51°32.136 2°52.678 17.3122 4.159764 31.71704 -0.547855
2010-07-07 10:10:12 51°32.22 2°52.592 17.3147 4.159131 31.735066 -0.617504
2010-07-07 10:11:12 51°32.251 2°52.623 17.2587 4.157971 31.721187 -0.617504
2010-07-07 10:12:15 51°32.277 2°52.669 17.1974 4.160293 31.791899 -0.547855
2010-07-07 10:13:15 51°32.306 2°52.717 17.2338 4.158816 31.806849 -0.58268
2010-07-07 10:14:15 51°32.337 2°52.766 17.296 4.158288 31.776527 -0.547855
2010-07-07 10:15:15 51°32.38 2°52.814 17.2996 4.157338 31.724938 -0.58268
2010-07-07 10:16:14 51°32.423 2°52.856 17.2841 4.157654 31.728776 -0.547855
2010-07-07 10:17:13 51°32.499 2°52.907 17.2974 4.158288 31.740455 -0.617504
2010-07-07 10:18:12 51°32.54 2°53.085 17.2159 4.163036 31.784331 -0.58268
2010-07-07 10:19:11 51°32.469 2°53.126 17.2866 4.167152 31.857855 -0.617504
2010-07-07 10:20:11 51°32.417 2°53.059 17.2892 4.161348 31.76766 -0.617504
2010-07-07 10:21:12 51°32.363 2°52.979 17.2796 4.158815 31.747236 -0.58268
2010-07-07 10:22:11 51°32.32 2°52.885 17.3131 4.158393 31.745358 -0.547855
2010-07-07 10:23:12 51°32.278 2°52.781 17.3289 4.157338 31.719225 -0.547855
2010-07-07 10:24:11 51°32.25 2°52.73 17.324 4.15586 31.688963 -0.547855
2010-07-07 10:25:12 51°32.269 2°52.759 17.2048 4.156493 31.698342 -0.547855
2010-07-07 10:26:15 51°32.301 2°52.796 17.1654 4.159555 31.817748 -0.547855
2010-07-07 10:27:15 51°32.372 2°52.879 17.3361 4.156073 31.794349 -0.547855
2010-07-07 10:28:14 51°32.35 2°53.107 17.3019 4.152906 31.657566 -0.547855
2010-07-07 10:29:13 51°32.239 2°53.378 17.32 4.158498 31.731962 -0.547855
2010-07-07 10:30:12 51°32.086 2°53.628 17.3197 4.160714 31.735396 -0.547855
2010-07-07 10:31:12 51°31.951 2°53.841 17.2643 4.167045 31.790423 -0.547855
2010-07-07 10:32:12 51°31.881 2°53.897 17.3515 4.163247 31.791284 -0.58268
2010-07-07 10:33:12 51°31.839 2°53.877 17.3897 4.162085 31.716816 -0.58268
2010-07-07 10:34:12 51°31.79 2°53.846 17.3951 4.161979 31.691421 -0.547855
2010-07-07 10:35:12 51°31.764 2°53.815 17.3887 4.160607 31.679769 -0.547855
2010-07-07 10:36:12 51°31.775 2°53.828 17.3648 4.158075 31.659964 -0.58268
2010-07-07 10:37:12 51°31.794 2°53.842 17.3068 4.158076 31.692416 -0.513031
2010-07-07 10:38:12 51°31.82 2°53.863 17.2204 4.158393 31.736208 -0.547855
2010-07-07 10:39:12 51°31.846 2°53.891 17.2865 4.1566 31.771304 -0.58268
2010-07-07 10:40:12 51°31.873 2°53.923 17.2774 4.157022 31.737106 -0.547855
2010-07-07 10:41:12 51°31.899 2°53.957 17.3945 4.155333 31.698736 -0.547855
2010-07-07 10:42:12 51°31.924 2°53.993 17.4114 4.159552 31.670237 -0.547855
2010-07-07 10:43:12 51°31.947 2°54.03 17.4176 4.160291 31.665705 -0.547855
2010-07-07 10:44:12 51°31.971 2°54.07 17.3947 4.160818 31.669048 -0.58268
2010-07-07 10:45:12 51°31.993 2°54.107 17.3752 4.159447 31.672185 -0.547855
2010-07-07 10:46:12 51°32.057 2°54.164 17.3766 4.159658 31.692196 -0.58268
2010-07-07 10:47:12 51°32.06 2°54.35 17.3985 4.160713 31.691481 -0.547855
2010-07-07 10:48:12 51°31.953 2°54.539 17.438 4.159341 31.655936 -0.547855
2010-07-07 10:49:12 51°31.818 2°54.685 17.3688 4.155753 31.612425 -0.547855
2010-07-07 10:50:12 51°31.676 2°54.82 17.3249 4.156387 31.650172 -0.547855
2010-07-07 10:51:12 51°31.537 2°54.965 17.4224 4.158604 31.718581 -0.58268
2010-07-07 10:52:12 51°31.396 2°55.104 17.4453 4.155226 31.609082 -0.478207
2010-07-07 10:53:12 51°31.245 2°55.161 17.5186 4.158285 31.619165 -0.547855
2010-07-07 10:54:12 51°31.17 2°55.062 17.4999 4.157229 31.555332 -0.478207
2010-07-07 10:55:12 51°31.128 2°54.998 17.4891 4.153326 31.536951 -0.513031
2010-07-07 10:56:12 51°31.092 2°54.938 17.4658 4.151321 31.52618 -0.513031
2010-07-07 10:57:12 51°31.063 2°54.856 17.381 4.150899 31.539552 -0.547855
2010-07-07 10:58:13 51°31.073 2°54.865 17.2882 4.151217 31.61307 -0.58268
2010-07-07 10:59:15 51°31.09 2°54.894 17.3226 4.149319 31.654396 -0.58268
2010-07-07 11:00:15 51°31.115 2°54.885 17.307 4.148052 31.62369 -0.58268
2010-07-07 11:01:15 51°31.142 2°54.881 17.3802 4.148686 31.64388 -0.58268
2010-07-07 11:02:15 51°31.21 2°54.881 17.436 4.147102 31.576979 -0.547855
2010-07-07 11:03:13 51°31.285 2°55.079 17.3782 4.149317 31.552717 -0.547855
2010-07-07 11:04:13 51°31.381 2°55.423 17.4855 4.14995 31.573381 -0.547855
2010-07-07 11:05:12 51°31.491 2°55.761 17.5823 4.155014 31.554076 -0.513031
2010-07-07 11:06:12 51°31.61 2°56.104 17.6573 4.160394 31.528543 -0.478207
2010-07-07 11:07:12 51°31.726 2°56.443 17.6474 4.160182 31.475611 -0.513031
2010-07-07 11:08:12 51°31.841 2°56.789 17.584 4.160815 31.482077 -0.547855
2010-07-07 11:09:12 51°31.95 2°57.137 17.5761 4.160816 31.532674 -0.547855
2010-07-07 11:10:12 51°32.091 2°57.408 17.6047 4.160077 31.525304 -0.58268
2010-07-07 11:11:12 51°32.225 2°57.471 17.5695 4.162082 31.537746 -0.58268
2010-07-07 11:12:12 51°32.313 2°57.435 17.5253 4.161977 31.557142 -0.617504
2010-07-07 11:13:12 51°32.368 2°57.366 17.5487 4.162927 31.620562 -0.652328
2010-07-07 11:14:12 51°32.393 2°57.296 17.4232 4.161661 31.57252 -0.58268
2010-07-07 11:15:12 51°32.407 2°57.227 17.3973 4.161134 31.643901 -0.617504
2010-07-07 11:16:12 51°32.405 2°57.156 17.3984 4.16124 31.677181 -0.617504
2010-07-07 11:17:12 51°32.392 2°57.083 17.3584 4.160397 31.681959 -0.617504
2010-07-07 11:18:12 51°32.39 2°57.049 17.2924 4.158287 31.691361 -0.617504
2010-07-07 11:19:12 51°32.4 2°57.039 17.2689 4.159026 31.743886 -0.617504
2010-07-07 11:20:12 51°32.416 2°57.04 17.2465 4.156072 31.735881 -0.58268
2010-07-07 11:21:12 51°32.436 2°57.044 17.2555 4.158077 31.768996 -0.547855
2010-07-07 11:22:12 51°32.488 2°56.993 17.231 4.158394 31.765392 -0.58268
2010-07-07 11:23:12 51°32.552 2°56.893 17.2438 4.158288 31.78226 -0.617504
2010-07-07 11:24:12 51°32.539 2°56.752 17.3958 4.157338 31.751247 -0.617504
2010-07-07 11:25:12 51°32.485 2°56.595 17.4979 4.159658 31.660897 -0.617504
2010-07-07 11:26:12 51°32.456 2°56.438 17.4949 4.161661 31.617759 -0.617504
2010-07-07 11:27:12 51°32.475 2°56.316 17.4497 4.162505 31.623215 -0.617504
2010-07-07 11:28:12 51°32.497 2°56.297 17.4225 4.162928 31.656281 -0.58268
2010-07-07 11:29:12 51°32.52 2°56.281 17.381 4.162717 31.680626 -0.547855
2010-07-07 11:30:12 51°32.541 2°56.252 17.3691 4.162296 31.695818 -0.547855
2010-07-07 11:31:12 51°32.545 2°56.178 17.3681 4.162191 31.710872 -0.58268
2010-07-07 11:32:12 51°32.538 2°56.079 17.3308 4.163246 31.716991 -0.58268
2010-07-07 11:33:12 51°32.546 2°56.05 17.3515 4.162613 31.74299 -0.58268
2010-07-07 11:34:12 51°32.56 2°56.044 17.36 4.16314 31.725217 -0.547855
2010-07-07 11:35:12 51°32.575 2°56.046 17.3723 4.163773 31.726607 -0.547855
2010-07-07 11:36:12 51°32.598 2°55.956 17.3619 4.164406 31.726857 -0.547855
2010-07-07 11:37:12 51°32.678 2°55.806 17.2914 4.164934 31.739898 -0.617504
2010-07-07 11:38:12 51°32.746 2°55.684 17.3167 4.164196 31.793073 -0.617504
2010-07-07 11:39:12 51°32.785 2°55.616 17.3853 4.162086 31.749356 -0.58268
2010-07-07 11:40:11 51°32.81 2°55.595 17.4209 4.16103 31.681647 -0.547855
2010-07-07 11:41:12 51°32.832 2°55.59 17.4312 4.161557 31.670771 -0.513031
2010-07-07 11:42:12 51°32.852 2°55.592 17.4369 4.160924 31.653464 -0.547855
2010-07-07 11:43:12 51°32.835 2°55.485 17.4511 4.160923 31.646651 -0.478207
2010-07-07 11:44:12 51°32.698 2°55.377 17.4681 4.162611 31.642247 -0.513031
2010-07-07 11:45:11 51°32.504 2°55.31 17.4541 4.161767 31.63112 -0.58268
2010-07-07 11:46:11 51°32.301 2°55.264 17.4843 4.16029 31.623695 -0.513031
2010-07-07 11:47:11 51°32.095 2°55.225 17.4561 4.157757 31.589765 -0.513031
2010-07-07 11:48:11 51°31.89 2°55.183 17.4905 4.156703 31.592142 -0.513031
2010-07-07 11:49:12 51°31.682 2°55.137 17.4871 4.156808 31.574362 -0.547855
2010-07-07 11:50:11 51°31.482 2°55.09 17.5263 4.153537 31.541563 -0.513031
2010-07-07 11:51:11 51°31.278 2°55.043 17.5157 4.150582 31.500743 -0.513031
2010-07-07 11:52:11 51°31.074 2°54.992 17.4838 4.14805 31.476489 -0.513031
2010-07-07 11:53:11 51°30.87 2°54.94 17.4233 4.150688 31.534938 -0.58268
2010-07-07 11:54:11 51°30.662 2°54.891 17.4998 4.150477 31.544455 -0.617504
2010-07-07 11:55:12 51°30.447 2°54.839 17.5345 4.155541 31.546683 -0.58268
2010-07-07 11:56:11 51°30.239 2°54.788 17.5255 4.158495 31.541219 -0.617504
2010-07-07 11:57:11 51°30.028 2°54.73 17.3797 4.166093 31.649655 -0.652328
2010-07-07 11:58:11 51°29.816 2°54.669 17.3876 4.157337 31.654258 -0.652328
2010-07-07 11:59:11 51°29.604 2°54.606 17.7043 4.157759 31.658412 -0.93092
2010-07-07 12:00:11 51°29.394 2°54.543 17.8868 4.157231 31.652225 -1.035392
2010-07-07 12:01:11 51°29.184 2°54.48 18.0603 4.157231 31.651088 -1.000568
2010-07-07 12:02:11 51°28.973 2°54.413 18.2348 4.157126 31.649055 -1.000568
2010-07-07 12:03:11 51°28.758 2°54.351 18.3988 4.157548 31.649229 -1.000568
2010-07-07 12:04:12 51°28.543 2°54.283 18.5575 4.158391 31.61439 -1.035392
2010-07-07 12:05:11 51°28.336 2°54.218 18.6932 4.15934 31.620744 -1.000568
2010-07-07 12:06:11 51°28.123 2°54.154 18.8414 4.160607 31.653617 -1.000568
2010-07-07 12:07:11 51°27.914 2°54.094 19.0032 4.161873 31.657548 -1.035392
2010-07-07 12:08:11 51°27.708 2°54.033 19.1553 4.16335 31.654753 -1.000568
2010-07-07 12:09:11 51°27.5 2°53.971 19.2894 4.165038 31.65829 -1.035392
2010-07-07 12:10:11 51°27.291 2°53.91 19.4328 4.166726 31.655021 -1.035392
2010-07-07 12:11:12 51°27.075 2°53.846 19.5544 4.168203 31.657337 -1.000568
2010-07-07 12:12:11 51°26.867 2°53.783 19.7094 4.16968 31.663619 -1.035392
2010-07-07 12:13:12 51°26.652 2°53.715 19.8249 4.170946 31.668678 -1.000568
2010-07-07 12:14:11 51°26.446 2°53.648 19.8927 4.172107 31.667178 -1.000568
2010-07-07 12:15:12 51°26.233 2°53.571 20.0262 4.173478 31.663502 -1.000568
2010-07-07 12:16:12 51°26.027 2°53.502 20.1445 4.174955 31.670346 -1.000568
2010-07-07 12:17:11 51°25.818 2°53.424 20.287 4.176116 31.677339 -1.035392
2010-07-07 12:18:11 51°25.607 2°53.348 20.4109 4.177487 31.671968 -1.000568
2010-07-07 12:19:12 51°25.39 2°53.279 20.5149 4.178859 31.6881 -0.965744
2010-07-07 12:20:12 51°25.175 2°53.237 20.6018 4.179914 31.679485 -1.000568
2010-07-07 12:21:12 51°24.959 2°53.196 20.7397 4.181286 31.692217 -1.000568
2010-07-07 12:22:12 51°24.738 2°53.154 20.8432 4.182657 31.697028 -1.035392
2010-07-07 12:23:11 51°24.519 2°53.113 20.9522 4.183607 31.693745 -1.000568
2010-07-07 12:24:12 51°24.293 2°53.07 21.0461 4.184767 31.703557 -1.000568
2010-07-07 12:25:11 51°24.075 2°53.029 21.1451 4.185717 31.704232 -1.035392
2010-07-07 12:26:12 51°23.849 2°52.986 21.2277 4.186983 31.690631 -1.000568
2010-07-07 12:27:11 51°23.628 2°52.945 21.3358 4.188354 31.703911 -1.000568
2010-07-07 12:28:12 51°23.4 2°52.906 21.4097 4.189937 31.710499 -1.035392
2010-07-07 12:29:12 51°23.177 2°52.871 21.4913 4.191309 31.722084 -1.000568
2010-07-07 12:30:11 51°22.958 2°52.834 21.5922 4.192575 31.718651 -1.000568
2010-07-07 12:31:12 51°22.73 2°52.798 21.6578 4.193841 31.723692 -0.965744
2010-07-07 12:32:11 51°22.508 2°52.77 21.7508 4.195529 31.7306 -1.000568
2010-07-07 12:33:11 51°22.281 2°52.745 21.8179 4.196795 31.738462 -1.000568
2010-07-07 12:34:11 51°22.056 2°52.713 21.9129 4.198167 31.737614 -1.000568
2010-07-07 12:35:11 51°21.831 2°52.683 22.4466 4.199433 31.745473 -0.965744
2010-07-07 12:36:12 51°21.601 2°52.669 22.4496 4.200488 31.756069 -1.000568
2010-07-07 12:37:12 51°21.375 2°52.685 22.4624 4.201332 31.754154 -1.000568
2010-07-07 12:38:11 51°21.153 2°52.679 22.4798 4.20207 31.741195 -1.035392
2010-07-07 12:39:12 51°20.927 2°52.662 22.4949 4.203337 31.763158 -1.000568
2010-07-07 12:40:12 51°20.706 2°52.646 22.4503 4.204286 31.751413 -1.000568
2010-07-07 12:41:11 51°20.486 2°52.628 22.4916 4.205236 31.75434 -1.000568
2010-07-07 12:42:12 51°20.257 2°52.608 22.5633 4.206502 31.749223 -1.000568
2010-07-07 12:43:11 51°20.033 2°52.588 22.576 4.208085 31.772708 -1.000568
2010-07-07 12:44:11 51°19.805 2°52.567 22.5878 4.20935 31.762512 -1.000568
2010-07-07 12:45:11 51°19.577 2°52.545 22.6277 4.210511 31.780181 -1.000568
2010-07-07 12:46:12 51°19.343 2°52.526 22.6346 4.211883 31.769748 -1.000568
2010-07-07 12:47:12 51°19.114 2°52.503 22.6728 4.213149 31.784354 -1.000568
2010-07-07 12:48:11 51°18.89 2°52.499 22.717 4.214099 31.78784 -1.000568
2010-07-07 12:49:12 51°18.66 2°52.51 22.7279 4.215048 31.785126 -1.000568
2010-07-07 12:50:12 51°18.432 2°52.521 22.7702 4.216525 31.789107 -0.965744
2010-07-07 12:51:12 51°18.204 2°52.531 22.7747 4.217686 31.790988 -1.035392
2010-07-07 12:52:11 51°17.98 2°52.54 22.8219 4.21853 31.780074 -1.000568
2010-07-07 12:53:11 51°17.751 2°52.548 22.8435 4.220429 31.797734 -1.000568
2010-07-07 12:54:11 51°17.521 2°52.562 22.868 4.222223 31.810567 -1.035392
2010-07-07 12:55:12 51°17.291 2°52.606 22.9163 4.2237 31.819048 -1.000568
2010-07-07 12:56:12 51°17.073 2°52.698 22.9253 4.224966 31.822936 -1.000568
2010-07-07 12:57:11 51°16.86 2°52.801 22.961 4.225705 31.822389 -1.035392
2010-07-07 12:58:12 51°16.636 2°52.907 22.9983 4.226443 31.822968 -1.000568
2010-07-07 12:59:12 51°16.42 2°53.035 23.0168 4.227393 31.824194 -1.000568
2010-07-07 13:00:12 51°16.205 2°53.164 23.0433 4.227921 31.829191 -1.000568
2010-07-07 13:01:11 51°16.002 2°53.311 23.0701 4.228659 31.817956 -1.035392
2010-07-07 13:02:11 51°15.802 2°53.48 23.1092 4.229397 31.812915 -0.965744
2010-07-07 13:03:12 51°15.612 2°53.684 23.1091 4.230347 31.8237 -1.035392
2010-07-07 13:04:12 51°15.425 2°53.887 23.1503 4.231297 31.82549 -0.965744
2010-07-07 13:05:12 51°15.245 2°54.099 23.1646 4.232246 31.828404 -1.000568
2010-07-07 13:06:12 51°15.068 2°54.317 23.1854 4.233196 31.82907 -0.965744
2010-07-07 13:07:12 51°14.886 2°54.533 23.2152 4.23404 31.829974 -1.000568
2010-07-07 13:08:11 51°14.709 2°54.748 23.2469 4.234989 31.831763 -1.000568
2010-07-07 13:09:12 51°14.544 2°54.94 23.2732 4.235834 31.832667 -1.000568
2010-07-07 13:10:12 51°14.395 2°55.134 23.2961 4.236572 31.832124 -1.000568
2010-07-07 13:11:12 51°14.252 2°55.299 23.3342 4.237416 31.83359 -0.965744
2010-07-07 13:12:12 51°14.129 2°55.412 23.3499 4.238155 31.833048 -1.000568
2010-07-07 13:13:12 51°14.015 2°55.493 23.3873 4.238999 31.834514 -1.035392
2010-07-07 13:14:12 51°13.901 2°55.574 23.4096 4.239843 31.834857 -1.000568
2010-07-07 13:15:11 51°13.802 2°55.654 23.4332 4.240792 31.837207 -1.000568
2010-07-07 13:16:12 51°13.736 2°55.755 23.4651 4.241637 31.837551 -1.000568
2010-07-07 13:17:22 51°13.69 2°55.87 23.4904 4.242586 31.838218 -1.000568